Time;durP1;ratioP1;P1;durP2;ratioP2;P2;SDS_P1;SDS_P2;PMS_P1;PMS_P2;Temp;Humidity;BMP_temperature;BMP_pressure;BME280_temperature;BME280_humidity;BME280_pressure;Samples;Min_cycle;Max_cycle;Signal;HPM_P1;HPM_P2
2023/03/25 00:00:52;;;;;;;24.13;12.32;;;12.90;94.80;;;;;;5045746;28;20509;-80
2023/03/25 00:03:18;;;;;;;23.73;11.68;;;12.90;95.20;;;;;;5052030;28;20025;-80
2023/03/25 00:05:45;;;;;;;57.75;25.63;;;12.80;95.30;;;;;;5051566;28;20122;-82
2023/03/25 00:08:10;;;;;;;96.15;38.13;;;12.80;95.30;;;;;;5051841;28;20631;-83
2023/03/25 00:10:36;;;;;;;67.55;29.77;;;12.80;95.50;;;;;;5053370;28;20499;-82
2023/03/25 00:13:04;;;;;;;62.53;28.52;;;12.70;95.80;;;;;;5052021;28;20074;-81
2023/03/25 00:15:32;;;;;;;66.18;29.15;;;12.70;96.20;;;;;;5053080;28;20021;-80
2023/03/25 00:18:00;;;;;;;63.13;27.25;;;12.70;96.30;;;;;;5050323;28;20036;-81
2023/03/25 00:20:26;;;;;;;59.80;25.27;;;12.60;97.10;;;;;;5043464;28;20025;-83
2023/03/25 00:22:53;;;;;;;58.78;21.70;;;12.60;97.50;;;;;;5049784;28;20175;-81
2023/03/25 00:25:19;;;;;;;61.50;23.48;;;12.50;97.90;;;;;;5050826;28;20494;-81
2023/03/25 00:27:47;;;;;;;130.57;50.85;;;12.50;98.70;;;;;;5050756;28;20044;-81
2023/03/25 00:30:18;;;;;;;83.28;33.70;;;12.50;99.00;;;;;;5050966;28;20108;-81
2023/03/25 00:32:51;;;;;;;100.25;37.15;;;12.50;98.70;;;;;;5052631;28;20033;-82
2023/03/25 00:35:20;;;;;;;85.32;35.08;;;12.50;99.50;;;;;;5052607;28;20112;-81
2023/03/25 00:37:58;;;;;;;120.32;40.83;;;12.40;99.80;;;;;;5045923;28;20025;-82
2023/03/25 00:40:34;;;;;;;197.65;64.93;;;12.40;99.80;;;;;;5052840;28;20468;-80
2023/03/25 00:43:01;;;;;;;119.53;37.83;;;12.40;99.80;;;;;;5051398;28;20036;-82
2023/03/25 00:45:27;;;;;;;97.80;34.38;;;12.40;99.80;;;;;;5051416;28;20055;-81
2023/03/25 00:47:53;;;;;;;102.57;31.98;;;12.40;99.90;;;;;;5051160;28;20036;-80
2023/03/25 00:50:20;;;;;;;103.65;32.22;;;12.50;99.90;;;;;;5046948;28;20025;-83
2023/03/25 00:52:46;;;;;;;104.75;30.83;;;12.40;99.90;;;;;;5052782;28;20029;-83
2023/03/25 00:55:12;;;;;;;75.60;25.48;;;12.50;99.90;;;;;;5052262;28;20104;-84
2023/03/25 00:57:38;;;;;;;71.13;26.52;;;12.50;99.90;;;;;;5051209;28;20527;-83
2023/03/25 01:00:07;;;;;;;74.28;27.67;;;12.50;99.80;;;;;;5050944;28;20044;-81
2023/03/25 01:02:33;;;;;;;81.53;31.75;;;12.50;99.90;;;;;;5051134;28;20029;-83
2023/03/25 01:04:59;;;;;;;87.22;35.15;;;12.50;99.90;;;;;;5052567;28;20027;-80
2023/03/25 01:07:28;;;;;;;82.03;33.58;;;12.40;98.70;;;;;;5052033;28;20040;-82
2023/03/25 01:09:54;;;;;;;88.53;36.67;;;12.40;99.20;;;;;;5054534;28;20033;-80
2023/03/25 01:12:20;;;;;;;87.07;35.13;;;12.30;98.70;;;;;;5054972;28;20387;-82
2023/03/25 01:14:46;;;;;;;81.18;32.72;;;12.30;98.80;;;;;;5054972;28;20122;-83
2023/03/25 01:17:12;;;;;;;57.72;22.42;;;12.30;99.90;;;;;;5054503;28;20120;-81
2023/03/25 01:19:38;;;;;;;43.83;18.73;;;12.30;99.90;;;;;;5054841;28;20087;-83
2023/03/25 01:22:04;;;;;;;43.33;17.42;;;12.30;99.90;;;;;;5053949;28;20053;-81
2023/03/25 01:24:33;;;;;;;38.28;16.02;;;12.30;99.90;;;;;;5054335;28;20379;-84
2023/03/25 01:27:04;;;;;;;37.80;15.75;;;12.30;99.90;;;;;;5054947;28;20040;-82
2023/03/25 01:29:31;;;;;;;28.60;12.07;;;12.20;99.90;;;;;;5056150;28;20025;-82
2023/03/25 01:32:00;;;;;;;32.22;13.98;;;12.20;99.60;;;;;;5050522;28;20040;-85
2023/03/25 01:34:28;;;;;;;31.00;13.02;;;12.20;99.80;;;;;;5055104;28;20463;-83
2023/03/25 01:36:54;;;;;;;32.05;11.27;;;12.20;99.20;;;;;;5054774;28;20494;-85
2023/03/25 01:39:20;;;;;;;74.60;31.67;;;12.10;99.80;;;;;;5055482;28;20053;-81
2023/03/25 01:41:48;;;;;;;60.55;26.35;;;12.10;99.90;;;;;;5056177;28;20021;-82
2023/03/25 01:44:20;;;;;;;49.63;21.10;;;12.00;99.90;;;;;;5054560;28;20115;-82
2023/03/25 01:46:48;;;;;;;104.80;39.97;;;12.00;99.90;;;;;;5054994;28;20037;-84
2023/03/25 01:49:22;;;;;;;88.40;34.42;;;11.90;99.90;;;;;;5054888;28;20033;-80
2023/03/25 01:51:53;;;;;;;115.03;46.40;;;11.90;99.90;;;;;;5054683;28;20028;-84
2023/03/25 01:54:19;;;;;;;104.18;38.92;;;11.90;99.90;;;;;;5054811;28;20087;-82
2023/03/25 01:56:47;;;;;;;51.53;20.33;;;11.80;99.90;;;;;;5054623;28;20075;-81
2023/03/25 01:59:18;;;;;;;53.03;21.35;;;11.80;99.90;;;;;;5055587;28;20483;-84
2023/03/25 02:01:45;;;;;;;50.50;22.38;;;11.80;99.90;;;;;;5056045;28;20031;-82
2023/03/25 02:04:15;;;;;;;44.78;18.90;;;11.70;99.90;;;;;;5054476;28;20025;-82
2023/03/25 02:06:44;;;;;;;42.65;18.48;;;11.70;99.90;;;;;;5054158;28;20056;-82
2023/03/25 02:09:13;;;;;;;46.45;18.48;;;11.70;99.90;;;;;;5054506;28;20029;-82
2023/03/25 02:11:39;;;;;;;41.13;18.63;;;11.80;99.90;;;;;;5054427;28;20025;-82
2023/03/25 02:14:14;;;;;;;44.47;18.92;;;11.70;99.90;;;;;;5054161;28;20112;-81
2023/03/25 02:16:47;;;;;;;42.13;17.63;;;11.70;99.90;;;;;;5054420;28;20031;-82
2023/03/25 02:19:34;;;;;;;34.97;16.05;;;11.80;99.90;;;;;;5053075;28;20142;-83
2023/03/25 02:22:24;;;;;;;39.17;15.60;;;11.80;99.90;;;;;;5054111;28;20130;-81
2023/03/25 02:25:06;;;;;;;39.67;16.52;;;11.80;99.90;;;;;;5054207;28;20036;-82
2023/03/25 02:27:50;;;;;;;43.63;19.92;;;11.80;99.90;;;;;;5053554;28;20452;-81
2023/03/25 02:30:40;;;;;;;49.83;19.27;;;11.80;99.90;;;;;;5053524;28;20124;-85
2023/03/25 02:33:12;;;;;;;96.32;41.47;;;11.80;99.90;;;;;;5053757;28;20074;-81
2023/03/25 02:35:51;;;;;;;;;;;11.90;99.90;;;;;;5055307;28;20450;-84
2023/03/25 02:38:35;;;;;;;93.65;38.72;;;11.80;99.90;;;;;;5055222;28;19905;-83
2023/03/25 02:41:17;;;;;;;113.75;49.03;;;11.80;99.90;;;;;;5053392;28;20021;-82
2023/03/25 02:44:00;;;;;;;90.65;41.65;;;11.80;99.90;;;;;;5053351;28;20036;-83
2023/03/25 02:46:28;;;;;;;95.70;43.25;;;11.70;99.90;;;;;;5053642;28;20112;-82
2023/03/25 02:49:01;;;;;;;102.72;44.25;;;11.80;99.90;;;;;;5052991;28;20033;-80
2023/03/25 02:51:31;;;;;;;94.35;39.40;;;11.80;99.90;;;;;;5049776;28;20387;-82
2023/03/25 02:54:02;;;;;;;75.10;30.52;;;11.80;99.90;;;;;;5052792;28;20025;-82
2023/03/25 02:56:31;;;;;;;56.90;26.25;;;11.80;99.90;;;;;;5052851;28;20110;-82
2023/03/25 02:58:59;;;;;;;51.92;25.20;;;11.90;99.90;;;;;;5053128;28;20118;-81
2023/03/25 03:01:25;;;;;;;50.85;22.23;;;11.90;99.90;;;;;;5051548;28;20029;-82
2023/03/25 03:03:55;;;;;;;37.45;15.60;;;11.90;99.90;;;;;;5053379;28;20025;-83
2023/03/25 03:06:23;;;;;;;25.23;12.68;;;12.00;99.90;;;;;;5054018;28;20112;-81
2023/03/25 03:08:49;;;;;;;25.60;12.65;;;12.00;99.90;;;;;;5052046;28;20063;-82
2023/03/25 03:11:33;;;;;;;22.52;10.10;;;12.00;99.90;;;;;;5052705;28;20064;-81
2023/03/25 03:14:20;;;;;;;33.17;12.77;;;12.00;99.90;;;;;;5048350;28;20108;-82
2023/03/25 03:16:57;;;;;;;24.80;11.35;;;12.00;99.90;;;;;;5053607;28;20044;-81
2023/03/25 03:19:26;;;;;;;37.17;17.38;;;12.10;99.90;;;;;;5053760;28;20129;-82
2023/03/25 03:22:20;;;;;;;36.05;13.68;;;12.00;99.90;;;;;;5053325;28;20052;-82
2023/03/25 03:25:06;;;;;;;35.10;17.50;;;12.10;99.90;;;;;;5051758;28;20024;-81
2023/03/25 03:27:50;;;;;;;34.30;16.90;;;12.10;99.90;;;;;;5063322;28;20033;-84
2023/03/25 03:30:28;;;;;;;34.60;16.10;;;12.10;99.90;;;;;;5070214;28;20053;-82
2023/03/25 03:33:24;;;;;;;34.70;14.20;;;12.10;99.90;;;;;;5053085;28;20033;-81
2023/03/25 03:35:57;;;;;;;125.60;33.58;;;12.00;99.90;;;;;;5052369;28;20036;-81
2023/03/25 03:38:34;;;;;;;179.07;45.33;;;12.10;99.90;;;;;;5045677;28;20056;-82
2023/03/25 03:41:05;;;;;;;53.72;22.25;;;12.10;99.90;;;;;;5068245;28;20024;-80
2023/03/25 03:43:41;;;;;;;22.00;11.27;;;12.00;99.90;;;;;;5073785;28;20107;-84
2023/03/25 03:46:23;;;;;;;40.40;18.60;;;12.00;99.90;;;;;;5058030;28;20041;-82
2023/03/25 03:48:57;;;;;;;28.77;15.52;;;12.00;99.90;;;;;;5051982;28;20025;-80
2023/03/25 03:51:37;;;;;;;41.03;21.17;;;12.00;99.90;;;;;;5052680;28;20048;-80
2023/03/25 03:54:31;;;;;;;33.50;14.05;;;12.00;99.90;;;;;;5051674;28;20386;-80
2023/03/25 03:57:01;;;;;;;50.00;19.33;;;11.90;99.90;;;;;;5051365;28;20025;-81
2023/03/25 03:59:41;;;;;;;51.15;22.33;;;11.80;99.90;;;;;;5051767;28;20371;-82
2023/03/25 04:02:15;;;;;;;37.78;16.15;;;11.80;99.90;;;;;;5051825;28;20025;-81
2023/03/25 04:04:41;;;;;;;33.70;16.02;;;11.70;99.90;;;;;;5052655;28;20032;-80
2023/03/25 04:07:15;;;;;;;37.03;16.80;;;11.70;99.90;;;;;;5051747;28;20029;-80
2023/03/25 04:10:02;;;;;;;32.58;15.43;;;11.70;99.90;;;;;;5051614;28;20025;-83
2023/03/25 04:12:38;;;;;;;26.45;13.48;;;11.70;99.90;;;;;;5048917;28;20029;-80
2023/03/25 04:15:05;;;;;;;25.55;13.25;;;11.70;99.90;;;;;;5052495;28;20032;-83
2023/03/25 04:17:31;;;;;;;28.65;14.23;;;11.70;99.90;;;;;;5052137;28;20025;-83
2023/03/25 04:20:05;;;;;;;25.02;12.05;;;11.60;99.90;;;;;;5053077;28;20021;-84
2023/03/25 04:22:31;;;;;;;30.67;13.88;;;11.60;99.90;;;;;;5052462;28;20108;-82
2023/03/25 04:24:59;;;;;;;36.20;15.13;;;11.70;99.90;;;;;;5065406;28;20024;-82
2023/03/25 04:27:28;;;;;;;45.38;17.42;;;11.70;99.90;;;;;;5059408;28;20032;-81
2023/03/25 04:29:56;;;;;;;40.47;18.42;;;11.70;99.90;;;;;;5072271;28;20433;-79
2023/03/25 04:32:22;;;;;;;49.13;17.42;;;11.70;99.90;;;;;;5058133;28;20044;-82
2023/03/25 04:34:48;;;;;;;59.40;21.13;;;11.70;99.90;;;;;;5052261;28;20460;-80
2023/03/25 04:37:14;;;;;;;30.38;12.40;;;11.70;99.90;;;;;;5052052;28;20487;-81
2023/03/25 04:39:40;;;;;;;50.05;16.70;;;11.80;99.90;;;;;;5051485;28;20029;-79
2023/03/25 04:42:07;;;;;;;52.13;22.23;;;11.80;99.90;;;;;;5052461;28;20025;-81
2023/03/25 04:44:37;;;;;;;21.25;11.32;;;11.80;99.90;;;;;;5056061;28;20383;-81
2023/03/25 04:47:04;;;;;;;27.45;11.88;;;11.90;99.90;;;;;;5055809;28;20122;-81
2023/03/25 04:49:30;;;;;;;28.63;11.38;;;11.90;99.90;;;;;;5055950;28;20025;-80
2023/03/25 04:51:56;;;;;;;30.35;11.60;;;12.00;99.90;;;;;;5055195;28;20036;-82
2023/03/25 04:54:22;;;;;;;25.35;10.85;;;12.00;99.90;;;;;;5056060;28;20017;-80
2023/03/25 04:56:49;;;;;;;23.73;10.75;;;12.10;99.90;;;;;;5055195;28;20036;-81
2023/03/25 04:59:17;;;;;;;28.50;10.27;;;12.10;99.90;;;;;;5056384;28;20082;-81
2023/03/25 05:01:44;;;;;;;27.42;10.18;;;12.20;99.90;;;;;;5055959;28;20450;-82
2023/03/25 05:04:12;;;;;;;27.77;11.35;;;12.20;99.90;;;;;;5055581;28;20372;-80
2023/03/25 05:06:43;;;;;;;24.02;12.13;;;12.30;99.90;;;;;;5055465;28;20033;-81
2023/03/25 05:09:13;;;;;;;39.03;18.67;;;12.30;99.90;;;;;;5057690;28;20365;-83
2023/03/25 05:11:40;;;;;;;35.53;16.23;;;12.30;99.90;;;;;;5056629;28;20383;-80
2023/03/25 05:14:10;;;;;;;30.02;14.77;;;12.40;99.90;;;;;;5055211;28;20025;-80
2023/03/25 05:16:36;;;;;;;44.00;16.50;;;12.30;99.90;;;;;;5056758;28;20021;-81
2023/03/25 05:19:02;;;;;;;61.60;25.88;;;12.30;99.90;;;;;;5056724;28;20021;-80
2023/03/25 05:21:36;;;;;;;40.22;17.83;;;12.20;99.90;;;;;;5054585;28;20109;-83
2023/03/25 05:24:07;;;;;;;44.80;21.00;;;12.20;99.90;;;;;;5056728;28;20021;-79
2023/03/25 05:26:33;;;;;;;42.38;21.23;;;12.30;99.90;;;;;;5054721;28;20040;-80
2023/03/25 05:29:03;;;;;;;44.25;19.77;;;12.30;99.90;;;;;;5054212;28;20021;-80
2023/03/25 05:31:29;;;;;;;35.10;18.20;;;12.40;99.90;;;;;;5049422;28;20033;-80
2023/03/25 05:33:56;;;;;;;48.88;24.42;;;12.30;99.90;;;;;;5054405;28;20108;-81
2023/03/25 05:36:25;;;;;;;35.28;18.77;;;12.30;99.90;;;;;;5054190;28;20032;-80
2023/03/25 05:38:55;;;;;;;32.70;15.00;;;12.40;99.90;;;;;;5055736;28;20023;-83
2023/03/25 05:41:31;;;;;;;31.00;16.83;;;12.40;99.90;;;;;;5055665;28;20028;-81
2023/03/25 05:44:00;;;;;;;39.25;17.38;;;12.30;99.90;;;;;;5054039;28;20028;-80
2023/03/25 05:46:28;;;;;;;40.42;18.25;;;12.30;99.90;;;;;;5054161;28;20048;-80
2023/03/25 05:48:56;;;;;;;48.70;23.52;;;12.30;99.90;;;;;;5053848;28;20161;-82
2023/03/25 05:51:23;;;;;;;28.67;15.55;;;12.30;99.90;;;;;;5054290;28;20029;-79
2023/03/25 05:53:49;;;;;;;31.65;15.68;;;12.50;99.90;;;;;;5048112;28;20025;-82
2023/03/25 05:56:20;;;;;;;29.08;14.43;;;12.50;99.90;;;;;;5053611;28;20059;-79
2023/03/25 05:58:47;;;;;;;24.80;13.40;;;12.50;99.90;;;;;;5054546;28;20025;-81
2023/03/25 06:01:14;;;;;;;20.15;11.90;;;12.50;99.90;;;;;;5054047;28;20376;-80
2023/03/25 06:03:41;;;;;;;32.90;15.95;;;12.40;99.90;;;;;;5053767;28;20048;-79
2023/03/25 06:06:12;;;;;;;38.25;19.42;;;12.40;99.90;;;;;;5053759;28;20064;-79
2023/03/25 06:08:43;;;;;;;27.23;14.35;;;12.40;99.90;;;;;;5054216;28;20025;-82
2023/03/25 06:11:12;;;;;;;32.45;15.95;;;12.40;99.90;;;;;;5054781;28;20025;-80
2023/03/25 06:13:38;;;;;;;23.40;14.07;;;12.40;99.90;;;;;;5055181;28;20074;-81
2023/03/25 06:16:05;;;;;;;24.42;12.98;;;12.40;99.90;;;;;;5053602;28;20039;-81
2023/03/25 06:18:31;;;;;;;22.17;12.02;;;12.40;99.90;;;;;;5053321;28;20449;-79
2023/03/25 06:20:58;;;;;;;21.77;11.60;;;12.60;99.90;;;;;;5053777;28;20037;-79
2023/03/25 06:23:25;;;;;;;20.83;13.00;;;12.70;99.90;;;;;;5054154;28;20049;-78
2023/03/25 06:25:51;;;;;;;37.15;19.08;;;12.80;99.90;;;;;;5054239;28;20459;-80
2023/03/25 06:28:17;;;;;;;52.28;26.60;;;12.90;99.90;;;;;;5053428;28;20391;-79
2023/03/25 06:30:48;;;;;;;56.60;31.52;;;13.00;99.90;;;;;;5052597;28;20021;-79
2023/03/25 06:33:15;;;;;;;50.55;25.90;;;13.00;99.90;;;;;;5053298;28;20029;-78
2023/03/25 06:35:42;;;;;;;47.00;21.80;;;13.00;99.90;;;;;;5053811;28;20033;-78
2023/03/25 06:38:10;;;;;;;115.80;41.75;;;13.00;99.90;;;;;;5053071;28;20090;-80
2023/03/25 06:40:37;;;;;;;58.95;23.92;;;13.20;99.90;;;;;;5052902;28;20029;-81
2023/03/25 06:43:04;;;;;;;40.03;19.25;;;13.10;99.90;;;;;;5054012;28;20025;-80
2023/03/25 06:45:30;;;;;;;36.40;19.02;;;13.20;99.90;;;;;;5054440;28;20360;-82
2023/03/25 06:47:56;;;;;;;31.83;16.90;;;13.20;99.90;;;;;;5054047;28;20059;-79
2023/03/25 06:50:23;;;;;;;33.08;18.45;;;13.20;99.90;;;;;;5052954;28;20463;-79
2023/03/25 06:52:49;;;;;;;31.70;15.65;;;13.30;99.90;;;;;;5053758;28;20029;-79
2023/03/25 06:55:14;;;;;;;41.08;20.23;;;13.30;99.90;;;;;;5052901;28;20125;-81
2023/03/25 06:57:41;;;;;;;40.70;21.88;;;13.40;99.90;;;;;;5052622;28;20037;-80
2023/03/25 07:00:07;;;;;;;37.22;18.40;;;13.50;99.90;;;;;;5053683;28;20021;-81
2023/03/25 07:02:33;;;;;;;36.83;18.13;;;13.50;99.90;;;;;;5052492;28;20033;-78
2023/03/25 07:04:59;;;;;;;36.47;19.25;;;13.90;99.90;;;;;;5047004;28;20037;-79
2023/03/25 07:07:25;;;;;;;33.30;18.30;;;14.20;99.90;;;;;;5053302;28;20450;-81
2023/03/25 07:09:54;;;;;;;41.20;17.02;;;14.50;99.90;;;;;;5052672;28;20025;-80
2023/03/25 07:12:21;;;;;;;46.67;20.65;;;14.80;99.90;;;;;;5048780;28;20036;-81
2023/03/25 07:14:56;;;;;;;46.45;20.88;;;15.10;99.90;;;;;;5046970;28;20031;-79
2023/03/25 07:17:22;;;;;;;27.60;13.75;;;15.40;99.90;;;;;;5057378;28;20059;-80
2023/03/25 07:19:48;;;;;;;25.63;11.50;;;15.60;99.90;;;;;;5053885;28;20108;-80
2023/03/25 07:22:14;;;;;;;28.10;13.32;;;15.80;99.90;;;;;;5054003;28;20052;-79
2023/03/25 07:24:40;;;;;;;22.48;12.75;;;15.90;99.90;;;;;;5052718;28;20096;-82
2023/03/25 07:27:06;;;;;;;13.68;8.90;;;15.90;99.90;;;;;;5053020;28;20044;-80
2023/03/25 07:29:31;;;;;;;24.27;12.15;;;15.80;99.90;;;;;;5052781;28;20036;-81
2023/03/25 07:31:57;;;;;;;23.50;10.98;;;15.70;99.90;;;;;;5063421;28;20425;-79
2023/03/25 07:34:23;;;;;;;22.25;12.27;;;15.70;99.90;;;;;;5052622;28;20029;-78
2023/03/25 07:36:49;;;;;;;18.90;9.75;;;15.70;99.90;;;;;;5052073;28;20112;-79
2023/03/25 07:39:15;;;;;;;20.45;9.27;;;15.70;99.90;;;;;;5064794;28;20148;-80
2023/03/25 07:41:41;;;;;;;23.20;11.07;;;15.80;99.90;;;;;;5051254;28;20024;-80
2023/03/25 07:44:07;;;;;;;16.33;9.13;;;15.80;99.90;;;;;;5052775;28;20036;-79
2023/03/25 07:46:33;;;;;;;18.60;9.15;;;15.80;99.90;;;;;;5053879;28;20037;-81
2023/03/25 07:48:59;;;;;;;21.25;8.98;;;15.80;99.90;;;;;;5059239;28;20430;-81
2023/03/25 07:51:25;;;;;;;25.73;11.38;;;15.70;99.90;;;;;;5064767;28;20032;-80
2023/03/25 07:53:51;;;;;;;19.55;9.88;;;15.70;99.90;;;;;;5058251;28;20379;-80
2023/03/25 07:56:17;;;;;;;22.35;10.20;;;15.70;99.90;;;;;;5057804;28;20033;-80
2023/03/25 07:58:44;;;;;;;24.58;12.90;;;15.70;99.90;;;;;;5052506;28;20032;-80
2023/03/25 08:01:13;;;;;;;33.95;16.58;;;16.00;99.90;;;;;;5058413;28;20028;-81
2023/03/25 08:03:39;;;;;;;16.05;9.80;;;16.20;99.90;;;;;;5060736;28;20055;-79
2023/03/25 08:06:05;;;;;;;12.20;8.18;;;16.20;99.90;;;;;;5052447;28;20476;-80
2023/03/25 08:08:31;;;;;;;20.77;11.95;;;16.10;99.90;;;;;;5064225;28;20119;-79
2023/03/25 08:10:57;;;;;;;19.33;8.43;;;16.20;99.90;;;;;;5071856;28;20103;-83
2023/03/25 08:13:23;;;;;;;20.83;11.05;;;16.00;99.90;;;;;;5054595;28;20048;-81
2023/03/25 08:15:49;;;;;;;14.40;9.43;;;16.00;99.90;;;;;;5064279;28;20025;-81
2023/03/25 08:18:15;;;;;;;14.60;9.30;;;16.00;99.90;;;;;;5056011;28;20029;-79
2023/03/25 08:20:41;;;;;;;11.32;7.03;;;16.00;99.90;;;;;;5055363;28;20032;-81
2023/03/25 08:23:09;;;;;;;11.55;7.50;;;15.90;99.90;;;;;;5056594;28;20098;-82
2023/03/25 08:25:42;;;;;;;8.65;7.13;;;15.90;99.90;;;;;;5056479;28;20546;-81
2023/03/25 08:28:07;;;;;;;17.30;7.15;;;16.00;99.90;;;;;;5057700;28;20498;-79
2023/03/25 08:30:37;;;;;;;19.08;10.90;;;16.00;99.90;;;;;;5056522;28;20029;-81
2023/03/25 08:33:08;;;;;;;19.48;10.40;;;16.10;99.90;;;;;;5055250;28;20033;-82
2023/03/25 08:35:36;;;;;;;11.82;7.57;;;16.20;99.90;;;;;;5055413;28;20501;-81
2023/03/25 08:38:04;;;;;;;9.75;5.68;;;16.20;99.90;;;;;;5055300;28;20443;-81
2023/03/25 08:40:34;;;;;;;14.63;8.65;;;16.10;99.90;;;;;;5055024;28;20029;-80
2023/03/25 08:43:02;;;;;;;13.20;7.38;;;16.10;99.90;;;;;;5055527;28;20123;-82
2023/03/25 08:45:27;;;;;;;14.82;7.75;;;16.20;99.90;;;;;;5055189;28;20055;-81
2023/03/25 08:47:53;;;;;;;11.73;6.38;;;16.30;99.90;;;;;;5056068;28;20388;-81
2023/03/25 08:50:19;;;;;;;13.20;7.25;;;16.60;99.90;;;;;;5055977;28;20450;-82
2023/03/25 08:52:46;;;;;;;20.77;9.27;;;17.10;99.90;;;;;;5055422;28;20033;-82
2023/03/25 08:55:15;;;;;;;11.57;7.40;;;17.70;99.90;;;;;;5055182;28;20025;-82
2023/03/25 08:57:41;;;;;;;14.20;8.32;;;17.80;99.60;;;;;;5054435;28;20386;-81
2023/03/25 09:00:14;;;;;;;13.25;7.50;;;18.10;98.60;;;;;;5056289;28;20094;-81
2023/03/25 09:02:43;;;;;;;12.60;7.35;;;17.80;96.90;;;;;;5063596;28;20025;-81
2023/03/25 09:05:10;;;;;;;11.02;7.40;;;17.50;95.50;;;;;;5063968;28;20045;-82
2023/03/25 09:07:37;;;;;;;21.67;11.23;;;17.20;97.00;;;;;;5055688;28;20146;-82
2023/03/25 09:10:05;;;;;;;16.23;8.82;;;17.30;98.40;;;;;;5056832;28;20108;-81
2023/03/25 09:12:31;;;;;;;10.27;6.47;;;17.20;97.80;;;;;;5055396;28;20482;-80
2023/03/25 09:14:57;;;;;;;11.20;6.95;;;17.00;99.00;;;;;;5055870;28;20024;-83
2023/03/25 09:17:23;;;;;;;5.40;3.95;;;17.00;98.60;;;;;;5056362;28;20151;-80
2023/03/25 09:19:49;;;;;;;10.85;5.60;;;17.00;96.20;;;;;;5055195;28;20048;-80
2023/03/25 09:22:14;;;;;;;6.70;3.60;;;16.90;94.50;;;;;;5056497;28;20113;-80
2023/03/25 09:24:40;;;;;;;5.18;2.53;;;16.80;94.60;;;;;;5054735;28;20036;-80
2023/03/25 09:27:07;;;;;;;9.02;3.63;;;16.90;94.20;;;;;;5054582;28;20043;-81
2023/03/25 09:29:33;;;;;;;15.70;5.03;;;17.00;95.40;;;;;;5054777;28;20120;-82
2023/03/25 09:31:59;;;;;;;6.55;4.60;;;17.00;93.90;;;;;;5055018;28;20029;-82
2023/03/25 09:34:26;;;;;;;12.27;5.55;;;17.00;94.10;;;;;;5054444;28;20033;-80
2023/03/25 09:36:53;;;;;;;5.15;3.85;;;17.40;94.80;;;;;;5055919;28;20039;-82
2023/03/25 09:39:19;;;;;;;11.23;5.63;;;17.30;93.30;;;;;;5056345;28;20025;-81
2023/03/25 09:41:53;;;;;;;5.93;4.18;;;17.30;92.90;;;;;;5057482;28;20021;-79
2023/03/25 09:44:49;;;;;;;11.18;6.25;;;17.50;92.70;;;;;;5062130;28;20374;-80
2023/03/25 09:47:15;;;;;;;13.57;6.85;;;17.70;91.30;;;;;;5055605;28;20033;-81
2023/03/25 09:49:44;;;;;;;10.35;5.80;;;17.70;90.90;;;;;;5055330;28;20048;-79
2023/03/25 09:52:22;;;;;;;5.15;3.83;;;18.10;90.70;;;;;;5055026;28;20025;-80
2023/03/25 09:54:52;;;;;;;9.63;6.43;;;18.90;89.70;;;;;;5054627;28;20017;-78
2023/03/25 09:57:25;;;;;;;11.90;8.40;;;19.60;85.70;;;;;;5054210;28;20044;-80
2023/03/25 09:59:53;;;;;;;5.50;4.40;;;20.20;80.00;;;;;;5054555;28;20032;-80
2023/03/25 10:02:24;;;;;;;4.78;3.45;;;20.30;76.00;;;;;;5055579;28;20017;-78
2023/03/25 10:05:02;;;;;;;;;;;19.90;77.10;;;;;;5055279;28;20028;-78
2023/03/25 10:07:41;;;;;;;10.80;5.93;;;19.50;77.80;;;;;;5055583;28;20007;-79
2023/03/25 10:10:36;;;;;;;2.95;2.50;;;20.10;73.60;;;;;;5055478;28;20036;-81
2023/03/25 10:13:28;;;;;;;2.95;2.72;;;20.70;72.10;;;;;;5053008;28;20025;-83
2023/03/25 10:16:31;;;;;;;5.50;4.53;;;20.50;64.60;;;;;;5055154;28;20040;-81
2023/03/25 10:19:28;;;;;;;5.82;2.92;;;20.90;68.50;;;;;;5054783;28;20043;-80
2023/03/25 10:22:10;;;;;;;4.72;3.03;;;19.90;64.80;;;;;;5054326;28;20396;-80
2023/03/25 10:24:39;;;;;;;6.72;3.63;;;19.20;67.50;;;;;;5054336;28;20124;-82
2023/03/25 10:27:17;;;;;;;6.20;3.53;;;18.80;70.10;;;;;;5057898;28;20040;-80
2023/03/25 10:29:52;;;;;;;5.93;3.30;;;18.50;70.40;;;;;;5074047;28;20428;-81
2023/03/25 10:32:35;;;;;;;12.05;6.60;;;18.00;70.40;;;;;;5058754;28;20112;-80
2023/03/25 10:35:04;;;;;;;7.88;4.20;;;18.40;69.90;;;;;;5053974;28;20025;-80
2023/03/25 10:37:40;;;;;;;7.55;4.18;;;18.30;71.80;;;;;;5052680;28;20479;-80
2023/03/25 10:40:28;;;;;;;6.25;4.30;;;18.60;71.10;;;;;;5042010;28;20021;-81
2023/03/25 10:43:20;;;;;;;4.88;3.92;;;18.70;71.60;;;;;;5054935;28;20025;-81
2023/03/25 10:45:47;;;;;;;6.95;4.43;;;18.50;70.80;;;;;;5033879;28;20029;-80
2023/03/25 10:48:24;;;;;;;14.38;6.45;;;18.40;70.90;;;;;;5034861;28;20124;-81
2023/03/25 10:51:00;;;;;;;18.65;6.65;;;18.40;70.80;;;;;;5054639;28;20501;-81
2023/03/25 10:53:28;;;;;;;8.98;4.90;;;18.30;70.50;;;;;;5053730;28;20024;-79
2023/03/25 10:56:12;;;;;;;23.58;10.00;;;18.30;68.30;;;;;;5053770;28;20025;-81
2023/03/25 10:58:40;;;;;;;16.17;8.23;;;18.20;67.90;;;;;;5054722;28;20028;-80
2023/03/25 11:01:17;;;;;;;9.48;6.22;;;18.00;67.30;;;;;;5054847;28;20029;-81
2023/03/25 11:03:48;;;;;;;19.13;7.50;;;17.90;67.80;;;;;;5054493;28;20036;-81
2023/03/25 11:06:36;;;;;;;23.75;9.90;;;17.90;68.00;;;;;;5053406;28;20123;-81
2023/03/25 11:09:25;;;;;;;15.88;7.70;;;18.00;68.20;;;;;;5054192;28;20020;-79
2023/03/25 11:11:52;;;;;;;12.68;6.55;;;18.10;68.90;;;;;;5051074;28;20063;-80
2023/03/25 11:14:28;;;;;;;9.38;5.50;;;18.30;68.80;;;;;;5051221;28;20375;-83
2023/03/25 11:16:58;;;;;;;5.63;4.32;;;18.20;67.10;;;;;;5052737;28;20040;-79
2023/03/25 11:19:38;;;;;;;9.50;5.05;;;18.30;66.30;;;;;;5052283;28;20025;-80
2023/03/25 11:22:11;;;;;;;28.98;13.25;;;18.20;66.00;;;;;;5052541;28;20051;-81
2023/03/25 11:24:44;;;;;;;9.77;6.07;;;18.60;65.30;;;;;;5053747;28;20375;-79
2023/03/25 11:27:27;;;;;;;12.55;7.78;;;18.70;65.30;;;;;;5052707;28;20045;-81
2023/03/25 11:29:56;;;;;;;6.65;4.80;;;18.90;64.90;;;;;;5054360;28;20024;-80
2023/03/25 11:32:30;;;;;;;6.45;4.05;;;18.70;61.70;;;;;;5053370;28;20021;-79
2023/03/25 11:35:00;;;;;;;10.10;6.55;;;18.70;62.80;;;;;;5052175;28;20029;-82
2023/03/25 11:37:31;;;;;;;6.30;4.75;;;18.80;65.00;;;;;;5050908;28;20036;-81
2023/03/25 11:40:12;;;;;;;11.52;3.90;;;18.70;64.10;;;;;;5049806;28;20051;-81
2023/03/25 11:42:48;;;;;;;7.18;3.67;;;18.50;64.00;;;;;;5052362;28;20033;-81
2023/03/25 11:45:33;;;;;;;8.13;5.00;;;18.30;63.40;;;;;;5050758;28;20115;-80
2023/03/25 11:48:01;;;;;;;12.70;6.13;;;18.40;63.70;;;;;;5051009;28;20052;-79
2023/03/25 11:50:29;;;;;;;8.80;5.57;;;18.20;63.60;;;;;;5052462;28;20016;-80
2023/03/25 11:53:02;;;;;;;7.30;3.97;;;18.10;64.00;;;;;;5051054;28;20021;-81
2023/03/25 11:55:31;;;;;;;5.50;2.75;;;18.00;64.80;;;;;;5051526;28;20078;-82
2023/03/25 11:57:59;;;;;;;6.13;3.72;;;18.00;63.90;;;;;;5051363;28;20037;-83
2023/03/25 12:00:28;;;;;;;5.88;4.47;;;18.10;64.40;;;;;;5050995;28;20033;-82
2023/03/25 12:03:20;;;;;;;5.45;3.85;;;18.20;61.90;;;;;;5052545;28;20468;-82
2023/03/25 12:06:17;;;;;;;7.57;4.50;;;18.30;61.50;;;;;;5050416;28;20021;-81
2023/03/25 12:08:55;;;;;;;8.85;4.10;;;18.50;62.60;;;;;;5057071;28;20400;-81
2023/03/25 12:11:48;;;;;;;9.07;3.30;;;18.40;61.90;;;;;;5050134;28;20471;-82
2023/03/25 12:14:23;;;;;;;8.30;3.83;;;18.20;62.40;;;;;;5039926;28;20043;-81
2023/03/25 12:17:21;;;;;;;11.45;4.72;;;18.00;62.90;;;;;;5053641;28;20064;-79
2023/03/25 12:20:10;;;;;;;7.65;4.10;;;17.90;62.00;;;;;;5051157;28;20083;-80
2023/03/25 12:23:06;;;;;;;7.68;4.47;;;17.70;62.10;;;;;;5049199;28;20073;-81
2023/03/25 12:26:13;;;;;;;8.73;5.55;;;17.60;63.90;;;;;;5050042;28;20037;-81
2023/03/25 12:28:50;;;;;;;7.13;4.43;;;17.60;64.00;;;;;;5047256;28;20045;-80
2023/03/25 12:31:45;;;;;;;11.43;6.80;;;17.60;64.60;;;;;;5033227;28;20112;-80
2023/03/25 12:34:29;;;;;;;5.75;3.90;;;17.50;64.70;;;;;;5049007;28;20024;-81
2023/03/25 12:37:04;;;;;;;10.57;6.05;;;17.40;66.30;;;;;;5050134;28;20041;-82
2023/03/25 12:39:47;;;;;;;6.10;3.75;;;17.40;65.30;;;;;;5050013;28;20033;-81
2023/03/25 12:42:41;;;;;;;13.98;6.93;;;17.30;66.00;;;;;;5048639;28;20026;-82
2023/03/25 12:45:26;;;;;;;14.80;9.23;;;17.20;65.80;;;;;;5048039;28;20487;-80
2023/03/25 12:48:03;;;;;;;34.28;17.30;;;17.20;65.10;;;;;;5049312;28;20104;-81
2023/03/25 12:50:53;;;;;;;26.70;13.55;;;17.10;65.60;;;;;;5032036;28;20037;-82
2023/03/25 12:53:49;;;;;;;19.35;10.70;;;17.20;65.70;;;;;;5061240;28;20025;-82
2023/03/25 12:56:36;;;;;;;9.95;5.43;;;17.20;66.30;;;;;;5037172;28;20490;-81